Terminal Aerodrome Forecast
Issued by NWS Omaha/Valley, NE

Home | Current Version | Previous Version | Text Only | Print | Product List | Glossary On
Versions: 1 2 3 4 5 6 7 8 9 10 11 12 13 14 15 16 17 18
000
FTUS43 KOAX 290520
TAFOFK
TAF
KOFK 290520Z 2906/3006 16008KT P6SM BKN250
     FM291000 17005KT 6SM BR SCT050 BKN200
      TEMPO 2910/2913 4SM BR
     FM291600 18009KT P6SM BKN100
     FM291900 19010KT P6SM SCT040 BKN150=

USA.gov is the U.S. government's official web portal to all federal, state and local government web resources and services.